Time;durP1;ratioP1;P1;durP2;ratioP2;P2;SDS_P1;SDS_P2;PMS_P1;PMS_P2;Temp;Humidity;BMP_temperature;BMP_pressure;BME280_temperature;BME280_humidity;BME280_pressure;Samples;Min_cycle;Max_cycle;Signal;HPM_P1;HPM_P2
2023/08/04 00:01:14;;;;;;;9.18;2.50;;;16.60;99.90;;;;;;5073126;28;20037;-56
2023/08/04 00:03:40;;;;;;;6.75;3.08;;;16.60;99.90;;;;;;5066287;28;20049;-57
2023/08/04 00:06:09;;;;;;;9.50;2.58;;;16.60;99.90;;;;;;5058463;28;20069;-56
2023/08/04 00:08:35;;;;;;;7.20;2.90;;;16.60;99.90;;;;;;5058521;28;20100;-57
2023/08/04 00:11:01;;;;;;;8.85;3.08;;;16.60;99.90;;;;;;5060375;28;20041;-56
2023/08/04 00:13:26;;;;;;;10.68;3.15;;;16.50;99.90;;;;;;5058527;28;20045;-57
2023/08/04 00:15:52;;;;;;;8.05;2.80;;;16.50;99.90;;;;;;5060221;28;20049;-57
2023/08/04 00:18:18;;;;;;;8.88;2.90;;;16.50;99.90;;;;;;5063303;28;20071;-57
2023/08/04 00:20:43;;;;;;;9.50;3.13;;;16.50;99.90;;;;;;5073281;28;20048;-57
2023/08/04 00:23:09;;;;;;;12.80;3.20;;;16.40;99.90;;;;;;5078339;28;20036;-57
2023/08/04 00:25:35;;;;;;;9.70;2.80;;;16.40;99.90;;;;;;5080167;28;20044;-57
2023/08/04 00:28:00;;;;;;;9.35;2.83;;;16.40;99.90;;;;;;5084277;28;20045;-55
2023/08/04 00:30:26;;;;;;;10.00;2.92;;;16.40;99.90;;;;;;5075409;28;20037;-56
2023/08/04 00:32:53;;;;;;;7.35;2.83;;;16.40;99.90;;;;;;5063941;28;20041;-56
2023/08/04 00:35:19;;;;;;;7.45;2.67;;;16.30;99.90;;;;;;5063185;28;20041;-57
2023/08/04 00:37:45;;;;;;;9.60;2.30;;;16.30;99.90;;;;;;5062045;28;20095;-57
2023/08/04 00:40:11;;;;;;;10.18;2.70;;;16.30;99.90;;;;;;5071964;28;20452;-57
2023/08/04 00:42:36;;;;;;;10.63;2.75;;;16.30;99.90;;;;;;5081072;28;20154;-57
2023/08/04 00:45:06;;;;;;;9.43;2.60;;;16.30;99.90;;;;;;5077538;28;20106;-57
2023/08/04 00:47:35;;;;;;;11.00;2.70;;;16.20;99.90;;;;;;5061980;28;20497;-57
2023/08/04 00:50:03;;;;;;;13.68;2.88;;;16.20;99.90;;;;;;5070801;28;20522;-57
2023/08/04 00:52:30;;;;;;;11.25;2.92;;;16.20;99.90;;;;;;5082870;28;20048;-56
2023/08/04 00:54:56;;;;;;;14.80;2.75;;;16.20;99.90;;;;;;5080922;28;20045;-57
2023/08/04 00:57:22;;;;;;;8.35;2.60;;;16.10;99.90;;;;;;5083357;28;20068;-57
2023/08/04 00:59:48;;;;;;;11.07;2.47;;;16.10;99.90;;;;;;5080980;28;20052;-57
2023/08/04 01:02:13;;;;;;;6.18;2.13;;;16.10;99.90;;;;;;5082438;28;20040;-57
2023/08/04 01:04:39;;;;;;;10.95;2.55;;;16.10;99.90;;;;;;5081163;28;20055;-58
2023/08/04 01:07:21;;;;;;;12.75;2.33;;;16.00;99.90;;;;;;5074625;28;20078;-57
2023/08/04 01:10:14;;;;;;;10.50;2.53;;;16.00;99.90;;;;;;5076081;28;20044;-56
2023/08/04 01:12:50;;;;;;;9.40;2.10;;;16.00;99.90;;;;;;5068170;28;20053;-57
2023/08/04 01:15:16;;;;;;;8.82;2.15;;;16.00;99.90;;;;;;5063390;28;20041;-57
2023/08/04 01:17:42;;;;;;;8.65;2.15;;;15.90;99.90;;;;;;5061754;28;20092;-57
2023/08/04 01:20:08;;;;;;;9.25;2.47;;;15.90;99.90;;;;;;5068537;28;20060;-56
2023/08/04 01:22:34;;;;;;;3.55;1.75;;;15.90;99.90;;;;;;5081651;28;20045;-56
2023/08/04 01:25:00;;;;;;;6.85;2.10;;;15.90;99.90;;;;;;5047417;28;20109;-57
2023/08/04 01:27:32;;;;;;;7.47;1.95;;;15.90;99.90;;;;;;5082879;28;20113;-57
2023/08/04 01:30:01;;;;;;;8.23;2.20;;;15.90;99.90;;;;;;5080252;28;20052;-57
2023/08/04 01:32:27;;;;;;;7.32;1.88;;;15.90;99.90;;;;;;5063109;28;20107;-57
2023/08/04 01:34:53;;;;;;;6.05;1.85;;;15.90;99.90;;;;;;5092821;28;20043;-57
2023/08/04 01:37:19;;;;;;;7.93;2.00;;;15.80;99.90;;;;;;5073332;28;20120;-57
2023/08/04 01:39:45;;;;;;;5.88;1.60;;;15.90;99.90;;;;;;5080148;28;20505;-57
2023/08/04 01:42:11;;;;;;;4.90;1.50;;;15.90;99.90;;;;;;5076969;28;20056;-57
2023/08/04 01:44:37;;;;;;;7.50;1.70;;;15.80;99.90;;;;;;5106849;28;20041;-57
2023/08/04 01:47:03;;;;;;;6.35;1.67;;;15.80;99.90;;;;;;5081334;28;20100;-57
2023/08/04 01:49:28;;;;;;;6.72;1.70;;;15.80;99.90;;;;;;5081538;28;20467;-57
2023/08/04 01:51:54;;;;;;;5.75;1.73;;;15.80;99.90;;;;;;5072754;28;20045;-57
2023/08/04 01:54:20;;;;;;;6.40;1.60;;;15.80;99.90;;;;;;5064540;28;20032;-57
2023/08/04 01:56:46;;;;;;;5.00;1.50;;;15.80;99.90;;;;;;5081837;28;20048;-59
2023/08/04 01:59:11;;;;;;;6.03;1.80;;;15.80;99.90;;;;;;5078206;28;20040;-57
2023/08/04 02:01:37;;;;;;;3.42;1.40;;;15.70;99.90;;;;;;5062139;28;20049;-57
2023/08/04 02:04:03;;;;;;;3.35;1.48;;;15.80;99.90;;;;;;5061456;28;20075;-57
2023/08/04 02:06:28;;;;;;;2.95;1.40;;;15.80;99.90;;;;;;5075816;28;20067;-57
2023/08/04 02:08:54;;;;;;;8.20;1.55;;;15.70;99.90;;;;;;5109678;28;20036;-57
2023/08/04 02:11:20;;;;;;;5.05;1.40;;;15.70;99.90;;;;;;5079900;28;20036;-57
2023/08/04 02:13:45;;;;;;;6.28;1.75;;;15.70;99.90;;;;;;5080710;28;20044;-57
2023/08/04 02:16:11;;;;;;;6.93;1.50;;;15.70;99.90;;;;;;5080335;28;20055;-57
2023/08/04 02:18:37;;;;;;;7.10;1.50;;;15.60;99.90;;;;;;5071947;28;20051;-57
2023/08/04 02:21:02;;;;;;;3.88;1.60;;;15.70;99.90;;;;;;5059977;28;20036;-57
2023/08/04 02:23:28;;;;;;;3.90;1.45;;;15.60;99.90;;;;;;5062031;28;20056;-57
2023/08/04 02:25:53;;;;;;;2.67;1.52;;;15.60;99.90;;;;;;5060253;28;20047;-57
2023/08/04 02:28:19;;;;;;;5.40;1.60;;;15.60;99.90;;;;;;5060528;28;20084;-57
2023/08/04 02:30:45;;;;;;;5.90;1.42;;;15.60;99.90;;;;;;5060727;28;20037;-57
2023/08/04 02:33:10;;;;;;;5.90;1.77;;;15.70;99.90;;;;;;5060841;28;20037;-57
2023/08/04 02:35:36;;;;;;;5.35;2.17;;;15.70;99.90;;;;;;5061118;28;20045;-57
2023/08/04 02:38:02;;;;;;;6.82;1.77;;;15.60;99.90;;;;;;5060414;28;20047;-57
2023/08/04 02:40:27;;;;;;;6.57;1.67;;;15.70;99.90;;;;;;5070033;28;20052;-57
2023/08/04 02:42:53;;;;;;;7.78;1.50;;;15.70;99.90;;;;;;5064216;28;20057;-57
2023/08/04 02:45:20;;;;;;;6.15;1.70;;;15.70;99.90;;;;;;5079501;28;20094;-57
2023/08/04 02:47:45;;;;;;;3.72;1.42;;;15.70;99.90;;;;;;5078213;28;20037;-56
2023/08/04 02:50:11;;;;;;;4.22;1.65;;;15.70;99.90;;;;;;5080113;28;20055;-57
2023/08/04 02:52:36;;;;;;;8.27;1.77;;;15.70;99.90;;;;;;5075702;28;20083;-57
2023/08/04 02:55:02;;;;;;;5.30;1.77;;;15.70;99.90;;;;;;5080236;28;20040;-57
2023/08/04 02:57:31;;;;;;;6.25;1.52;;;15.70;99.90;;;;;;5081248;28;20068;-57
2023/08/04 03:00:00;;;;;;;9.23;2.03;;;15.70;99.90;;;;;;5073374;28;20051;-57
2023/08/04 03:02:26;;;;;;;4.78;1.70;;;15.70;99.90;;;;;;5061257;28;20048;-57
2023/08/04 03:04:52;;;;;;;5.15;2.20;;;15.70;99.90;;;;;;5057857;28;20064;-57
2023/08/04 03:07:18;;;;;;;9.40;2.10;;;15.70;99.90;;;;;;5059939;28;20049;-57
2023/08/04 03:09:43;;;;;;;7.57;2.10;;;15.80;99.90;;;;;;5063833;28;20036;-57
2023/08/04 03:12:09;;;;;;;6.18;1.80;;;15.70;99.90;;;;;;5079584;28;20040;-57
2023/08/04 03:14:35;;;;;;;4.38;2.03;;;15.80;99.90;;;;;;5066406;28;20113;-57
2023/08/04 03:17:00;;;;;;;6.38;1.50;;;15.80;99.90;;;;;;5091797;28;20058;-57
2023/08/04 03:19:26;;;;;;;5.65;1.65;;;15.80;99.90;;;;;;5060245;28;20033;-57
2023/08/04 03:21:52;;;;;;;7.78;1.77;;;15.80;99.90;;;;;;5079375;28;20048;-57
2023/08/04 03:24:18;;;;;;;6.82;1.77;;;15.80;99.90;;;;;;5081104;28;20048;-57
2023/08/04 03:26:43;;;;;;;3.38;1.58;;;15.80;99.90;;;;;;5066067;28;20073;-57
2023/08/04 03:29:09;;;;;;;6.80;2.30;;;15.80;99.90;;;;;;5076676;28;20048;-57
2023/08/04 03:31:35;;;;;;;7.85;1.95;;;15.80;99.90;;;;;;5079236;28;20362;-57
2023/08/04 03:34:01;;;;;;;10.20;2.10;;;15.80;99.90;;;;;;5078871;28;20044;-57
2023/08/04 03:36:26;;;;;;;6.35;1.88;;;15.80;99.90;;;;;;5062880;28;20103;-57
2023/08/04 03:38:52;;;;;;;4.03;1.55;;;15.80;99.90;;;;;;5071329;28;20043;-57
2023/08/04 03:41:18;;;;;;;7.20;2.10;;;15.80;99.90;;;;;;5065397;28;20041;-57
2023/08/04 03:43:43;;;;;;;6.25;1.83;;;15.80;99.90;;;;;;5063981;28;20051;-56
2023/08/04 03:46:09;;;;;;;4.05;1.67;;;15.80;99.90;;;;;;5079958;28;20042;-57
2023/08/04 03:48:35;;;;;;;8.23;2.25;;;15.80;99.90;;;;;;5078666;28;20131;-57
2023/08/04 03:51:00;;;;;;;8.20;2.00;;;15.80;99.90;;;;;;5076312;28;20028;-57
2023/08/04 03:53:26;;;;;;;5.32;1.90;;;15.80;99.90;;;;;;5079207;28;20045;-57
2023/08/04 03:55:51;;;;;;;8.00;1.90;;;15.80;99.90;;;;;;5078929;28;20043;-57
2023/08/04 03:58:17;;;;;;;7.53;1.80;;;15.80;99.90;;;;;;5080849;28;20037;-57
2023/08/04 04:00:43;;;;;;;4.43;1.60;;;15.80;99.90;;;;;;5070044;28;20044;-56
2023/08/04 04:03:09;;;;;;;3.42;1.70;;;15.80;99.90;;;;;;5063751;28;20497;-57
2023/08/04 04:05:34;;;;;;;5.75;1.92;;;15.80;99.90;;;;;;5064357;28;20098;-56
2023/08/04 04:08:00;;;;;;;6.18;2.00;;;15.80;99.90;;;;;;5061798;28;20052;-57
2023/08/04 04:10:26;;;;;;;4.75;1.70;;;15.80;99.90;;;;;;5063918;28;20048;-57
2023/08/04 04:12:51;;;;;;;7.43;2.20;;;15.90;99.90;;;;;;5060973;28;20045;-57
2023/08/04 04:15:17;;;;;;;4.40;1.50;;;15.90;99.90;;;;;;5114900;28;20513;-57
2023/08/04 04:17:43;;;;;;;5.45;1.70;;;15.90;99.90;;;;;;5082988;28;20088;-57
2023/08/04 04:20:09;;;;;;;4.47;2.00;;;15.80;99.90;;;;;;5082422;28;20071;-57
2023/08/04 04:22:34;;;;;;;5.70;1.70;;;15.90;99.90;;;;;;5077193;28;20045;-57
2023/08/04 04:25:02;;;;;;;6.03;1.92;;;15.90;99.90;;;;;;5063086;28;20087;-57
2023/08/04 04:27:27;;;;;;;3.42;1.30;;;15.90;99.90;;;;;;5063815;28;20396;-57
2023/08/04 04:29:53;;;;;;;5.82;1.88;;;15.90;99.90;;;;;;5065081;28;20119;-57
2023/08/04 04:32:19;;;;;;;3.67;1.67;;;15.90;99.90;;;;;;5064444;28;20041;-57
2023/08/04 04:34:44;;;;;;;7.85;1.70;;;15.90;99.90;;;;;;5062131;28;20076;-57
2023/08/04 04:37:10;;;;;;;3.92;1.50;;;15.90;99.90;;;;;;5063812;28;20068;-57
2023/08/04 04:39:36;;;;;;;9.32;1.95;;;15.90;99.90;;;;;;5061939;28;20044;-57
2023/08/04 04:42:05;;;;;;;5.90;1.95;;;16.00;99.90;;;;;;5082661;28;20047;-57
2023/08/04 04:44:31;;;;;;;4.05;1.70;;;16.00;99.90;;;;;;5083343;28;20067;-57
2023/08/04 04:46:56;;;;;;;5.05;1.90;;;16.00;99.90;;;;;;5082474;28;20041;-57
2023/08/04 04:49:22;;;;;;;4.35;1.70;;;16.00;99.90;;;;;;5082825;28;20072;-57
2023/08/04 04:51:48;;;;;;;5.00;1.67;;;16.00;99.90;;;;;;5080980;28;20489;-57
2023/08/04 04:54:13;;;;;;;6.45;1.67;;;16.00;99.90;;;;;;5083842;28;20032;-57
2023/08/04 04:56:39;;;;;;;5.53;2.00;;;16.00;99.90;;;;;;5082950;28;20067;-57
2023/08/04 04:59:05;;;;;;;7.03;2.00;;;16.00;99.90;;;;;;5081570;28;20037;-57
2023/08/04 05:01:30;;;;;;;4.18;1.80;;;16.00;99.90;;;;;;5067059;28;20076;-57
2023/08/04 05:03:56;;;;;;;5.40;1.90;;;16.00;99.90;;;;;;5081726;28;20041;-57
2023/08/04 05:06:22;;;;;;;5.63;1.90;;;16.00;99.90;;;;;;5082346;28;20033;-57
2023/08/04 05:08:48;;;;;;;5.40;1.80;;;16.00;99.90;;;;;;5080339;28;20449;-57
2023/08/04 05:11:13;;;;;;;5.63;2.08;;;16.00;99.90;;;;;;5080790;28;20033;-56
2023/08/04 05:13:41;;;;;;;4.05;1.95;;;16.00;99.90;;;;;;5061721;28;20057;-57
2023/08/04 05:16:07;;;;;;;8.32;2.20;;;16.00;99.90;;;;;;5062868;28;20248;-57
2023/08/04 05:18:33;;;;;;;3.67;2.13;;;16.00;99.90;;;;;;5063040;28;20059;-57
2023/08/04 05:20:59;;;;;;;6.88;2.10;;;16.00;99.90;;;;;;5070589;28;20055;-57
2023/08/04 05:23:25;;;;;;;5.63;1.98;;;16.00;99.90;;;;;;5114279;28;20153;-57
2023/08/04 05:25:50;;;;;;;5.70;2.13;;;16.00;99.90;;;;;;5067759;28;20044;-57
2023/08/04 05:28:22;;;;;;;6.57;1.90;;;16.00;99.90;;;;;;5075587;28;20087;-58
2023/08/04 05:30:48;;;;;;;7.15;2.20;;;16.10;99.90;;;;;;5081063;28;20351;-57
2023/08/04 05:33:14;;;;;;;3.72;1.88;;;16.10;99.90;;;;;;5079455;28;20045;-57
2023/08/04 05:35:44;;;;;;;6.40;1.55;;;16.10;99.90;;;;;;5079237;28;20044;-57
2023/08/04 05:38:10;;;;;;;5.50;1.73;;;16.10;99.90;;;;;;5061072;28;20049;-57
2023/08/04 05:40:37;;;;;;;4.65;1.95;;;16.10;99.90;;;;;;5062877;28;20090;-57
2023/08/04 05:43:04;;;;;;;5.57;2.03;;;16.10;99.90;;;;;;5079956;28;20088;-57
2023/08/04 05:45:35;;;;;;;5.35;2.05;;;16.10;99.90;;;;;;5082976;28;20405;-57
2023/08/04 05:48:00;;;;;;;5.00;1.90;;;16.10;99.90;;;;;;5081871;28;20048;-57
2023/08/04 05:50:27;;;;;;;4.65;1.70;;;16.20;99.90;;;;;;5081021;28;20037;-57
2023/08/04 05:52:53;;;;;;;5.05;1.73;;;16.30;99.90;;;;;;5080605;28;20040;-57
2023/08/04 05:55:22;;;;;;;3.20;1.35;;;16.30;99.90;;;;;;5081243;28;20040;-57
2023/08/04 05:57:47;;;;;;;3.95;1.67;;;16.30;99.90;;;;;;5082742;28;20028;-56
2023/08/04 06:00:13;;;;;;;5.22;1.50;;;16.40;99.90;;;;;;5080872;28;20032;-57
2023/08/04 06:02:41;;;;;;;2.97;1.30;;;16.50;99.90;;;;;;5065249;28;20045;-58
2023/08/04 06:05:07;;;;;;;3.15;1.40;;;16.50;99.90;;;;;;5060882;28;20067;-57
2023/08/04 06:07:33;;;;;;;2.17;1.10;;;16.50;99.90;;;;;;5061584;28;20077;-57
2023/08/04 06:09:58;;;;;;;2.97;1.42;;;16.60;99.90;;;;;;5060845;28;20052;-58
2023/08/04 06:12:24;;;;;;;3.85;1.50;;;16.60;99.90;;;;;;5060093;28;20057;-58
2023/08/04 06:14:50;;;;;;;8.10;1.58;;;16.70;99.90;;;;;;5102248;28;20074;-57
2023/08/04 06:17:15;;;;;;;3.28;1.20;;;16.70;99.90;;;;;;5079366;28;20045;-58
2023/08/04 06:19:43;;;;;;;2.55;1.20;;;16.70;99.90;;;;;;5082394;28;20075;-57
2023/08/04 06:22:09;;;;;;;2.47;1.10;;;16.80;99.90;;;;;;5063543;28;20041;-57
2023/08/04 06:24:35;;;;;;;6.10;1.80;;;16.80;99.90;;;;;;5072842;28;20052;-57
2023/08/04 06:27:03;;;;;;;6.25;1.80;;;16.80;99.90;;;;;;5071542;28;20044;-57
2023/08/04 06:29:29;;;;;;;3.88;1.77;;;16.80;99.90;;;;;;5080109;28;20117;-58
2023/08/04 06:31:55;;;;;;;3.10;1.60;;;16.90;99.90;;;;;;5081779;28;20044;-57
2023/08/04 06:34:21;;;;;;;3.83;1.60;;;16.90;99.90;;;;;;5079686;28;20036;-58
2023/08/04 06:36:47;;;;;;;3.53;1.77;;;16.90;99.90;;;;;;5078464;28;20053;-57
2023/08/04 06:39:13;;;;;;;4.38;1.80;;;17.00;99.90;;;;;;5078396;28;20302;-56
2023/08/04 06:41:39;;;;;;;4.13;1.23;;;17.00;99.90;;;;;;5073850;28;20044;-57
2023/08/04 06:44:05;;;;;;;3.70;1.42;;;17.00;99.90;;;;;;5069192;28;20052;-57
2023/08/04 06:46:31;;;;;;;3.50;1.40;;;17.00;99.90;;;;;;5067495;28;20047;-57
2023/08/04 06:48:57;;;;;;;4.38;1.40;;;17.00;99.90;;;;;;5081108;28;20071;-57
2023/08/04 06:51:22;;;;;;;2.28;1.00;;;17.00;99.90;;;;;;5077240;28;20087;-57
2023/08/04 06:53:48;;;;;;;3.00;1.23;;;17.00;99.90;;;;;;5078764;28;20051;-56
2023/08/04 06:56:13;;;;;;;3.03;1.20;;;17.00;99.90;;;;;;5073316;28;20055;-57
2023/08/04 06:58:39;;;;;;;8.20;1.50;;;17.20;99.90;;;;;;5080681;28;20036;-56
2023/08/04 07:01:05;;;;;;;3.08;1.48;;;17.00;99.90;;;;;;5079667;28;20039;-56
2023/08/04 07:03:30;;;;;;;3.17;1.17;;;17.00;99.90;;;;;;5078827;28;20043;-57
2023/08/04 07:05:56;;;;;;;3.88;1.40;;;17.00;99.90;;;;;;5077785;28;20123;-57
2023/08/04 07:08:23;;;;;;;4.13;1.40;;;17.00;99.90;;;;;;5077106;28;20044;-57
2023/08/04 07:10:49;;;;;;;3.33;1.77;;;17.00;99.90;;;;;;5078012;28;20079;-57
2023/08/04 07:13:14;;;;;;;5.50;1.88;;;17.00;99.90;;;;;;5079019;28;20068;-57
2023/08/04 07:15:40;;;;;;;2.30;1.42;;;17.00;99.90;;;;;;5076900;28;20071;-57
2023/08/04 07:18:06;;;;;;;3.38;1.50;;;17.00;99.90;;;;;;5080274;28;20051;-57
2023/08/04 07:20:31;;;;;;;2.22;1.20;;;17.00;99.90;;;;;;5077570;28;20041;-58
2023/08/04 07:22:57;;;;;;;1.63;1.00;;;17.00;99.90;;;;;;5080336;28;20100;-57
2023/08/04 07:25:23;;;;;;;2.83;1.38;;;17.00;99.90;;;;;;5073977;28;20628;-57
2023/08/04 07:27:49;;;;;;;3.70;1.50;;;17.00;99.90;;;;;;5079252;28;20048;-57
2023/08/04 07:30:15;;;;;;;1.90;1.30;;;17.00;99.90;;;;;;5079004;28;20040;-57
2023/08/04 07:32:41;;;;;;;2.55;1.40;;;17.00;99.90;;;;;;5080708;28;20119;-55
2023/08/04 07:35:07;;;;;;;2.20;1.50;;;16.90;99.90;;;;;;5079419;28;20138;-57
2023/08/04 07:37:34;;;;;;;5.30;1.58;;;16.90;99.90;;;;;;5071553;28;20040;-57
2023/08/04 07:39:59;;;;;;;1.90;1.30;;;16.90;99.90;;;;;;5079267;28;20107;-57
2023/08/04 07:42:25;;;;;;;2.50;1.58;;;16.60;99.90;;;;;;5073574;28;20517;-57
2023/08/04 07:44:51;;;;;;;3.22;1.67;;;16.90;99.90;;;;;;5080182;28;20066;-57
2023/08/04 07:47:16;;;;;;;3.97;1.60;;;16.90;99.90;;;;;;5068209;28;20446;-57
2023/08/04 07:49:42;;;;;;;4.70;2.10;;;17.00;99.90;;;;;;5063420;28;20037;-57
2023/08/04 07:52:08;;;;;;;4.97;1.90;;;17.00;99.90;;;;;;5076376;28;20162;-56
2023/08/04 07:54:37;;;;;;;3.42;1.50;;;17.00;99.90;;;;;;5081170;28;20041;-57
2023/08/04 07:57:03;;;;;;;2.80;1.60;;;17.00;99.90;;;;;;5076932;28;20096;-57
2023/08/04 07:59:29;;;;;;;3.22;1.52;;;17.00;99.90;;;;;;5068521;28;20040;-59
2023/08/04 08:01:55;;;;;;;3.33;1.50;;;17.00;99.90;;;;;;5072932;28;20037;-56
2023/08/04 08:04:20;;;;;;;3.63;1.95;;;17.00;99.90;;;;;;5077666;28;20067;-58
2023/08/04 08:06:46;;;;;;;4.05;1.65;;;17.00;99.90;;;;;;5080274;28;20075;-56
2023/08/04 08:09:12;;;;;;;3.45;1.85;;;17.10;99.90;;;;;;5078096;28;20040;-56
2023/08/04 08:11:38;;;;;;;4.50;1.70;;;17.20;99.90;;;;;;5080163;28;20056;-56
2023/08/04 08:14:04;;;;;;;2.92;1.77;;;17.30;99.90;;;;;;5046335;28;20059;-56
2023/08/04 08:16:29;;;;;;;5.38;2.33;;;17.30;99.90;;;;;;5076189;28;20533;-56
2023/08/04 08:18:55;;;;;;;7.97;2.40;;;17.40;99.90;;;;;;5075591;28;20076;-56
2023/08/04 08:21:21;;;;;;;4.22;2.08;;;17.50;99.90;;;;;;5068407;28;20075;-56
2023/08/04 08:23:46;;;;;;;6.32;1.90;;;17.50;99.90;;;;;;5078630;28;20036;-56
2023/08/04 08:26:12;;;;;;;3.33;1.75;;;17.60;99.90;;;;;;5078864;28;20112;-56
2023/08/04 08:28:38;;;;;;;2.75;1.90;;;17.70;99.90;;;;;;5079581;28;20366;-56
2023/08/04 08:31:04;;;;;;;2.20;1.60;;;17.90;99.90;;;;;;5078488;28;20361;-56
2023/08/04 08:33:30;;;;;;;4.45;1.98;;;18.00;99.90;;;;;;5071875;28;20037;-56
2023/08/04 08:35:56;;;;;;;4.55;1.85;;;18.30;99.90;;;;;;5070715;28;20059;-57
2023/08/04 08:38:21;;;;;;;4.75;1.50;;;18.40;99.90;;;;;;5072036;28;20040;-57
2023/08/04 08:40:51;;;;;;;2.22;1.15;;;18.60;99.90;;;;;;5069504;28;20052;-57
2023/08/04 08:43:17;;;;;;;1.95;1.10;;;18.80;99.90;;;;;;5074118;28;20047;-56
2023/08/04 08:45:44;;;;;;;3.67;1.23;;;18.90;99.90;;;;;;5076487;28;20108;-56
2023/08/04 08:48:11;;;;;;;2.95;1.33;;;18.90;99.90;;;;;;5063337;28;20088;-56
2023/08/04 08:50:39;;;;;;;4.50;1.50;;;18.90;99.90;;;;;;5080482;28;20044;-57
2023/08/04 08:53:16;;;;;;;3.10;1.30;;;18.90;99.90;;;;;;5083679;28;20048;-57
2023/08/04 08:55:44;;;;;;;3.50;1.40;;;18.80;99.90;;;;;;5068388;28;20479;-57
2023/08/04 08:58:11;;;;;;;3.38;1.40;;;18.80;99.90;;;;;;5074034;28;20040;-55
2023/08/04 09:00:36;;;;;;;3.17;1.38;;;18.90;99.90;;;;;;5082155;28;20051;-56
2023/08/04 09:03:05;;;;;;;4.47;1.50;;;18.80;99.90;;;;;;5082649;28;20123;-57
2023/08/04 09:05:32;;;;;;;2.50;1.38;;;18.80;99.90;;;;;;5072815;28;20041;-56
2023/08/04 09:07:57;;;;;;;5.35;1.67;;;18.70;99.90;;;;;;5058635;28;20055;-56
2023/08/04 09:10:23;;;;;;;3.50;1.40;;;18.70;99.90;;;;;;5064522;28;20072;-57
2023/08/04 09:12:51;;;;;;;4.45;1.30;;;18.70;99.90;;;;;;5072607;28;20041;-56
2023/08/04 09:15:17;;;;;;;3.60;1.10;;;18.60;99.90;;;;;;5074126;28;20049;-56
2023/08/04 09:17:44;;;;;;;4.75;1.40;;;18.70;99.90;;;;;;5081843;28;20056;-57
2023/08/04 09:20:26;;;;;;;3.25;1.48;;;18.70;99.90;;;;;;5082786;28;20462;-56
2023/08/04 09:22:53;;;;;;;5.95;1.48;;;18.80;99.90;;;;;;5082219;28;20047;-56
2023/08/04 09:25:19;;;;;;;3.45;1.70;;;19.00;99.90;;;;;;5079307;28;20049;-56
2023/08/04 09:27:49;;;;;;;4.43;1.60;;;19.10;99.90;;;;;;5082684;28;20100;-56
2023/08/04 09:30:16;;;;;;;1.58;1.15;;;19.30;99.90;;;;;;5065944;28;20045;-57
2023/08/04 09:32:46;;;;;;;4.07;1.33;;;19.50;99.90;;;;;;5081705;28;20044;-57
2023/08/04 09:35:13;;;;;;;4.60;1.50;;;19.60;99.90;;;;;;5067869;28;20075;-57
2023/08/04 09:37:39;;;;;;;4.57;1.30;;;19.70;99.90;;;;;;5067769;28;20083;-57
2023/08/04 09:40:20;;;;;;;4.28;1.40;;;19.70;99.90;;;;;;5076146;28;20052;-56
2023/08/04 09:42:47;;;;;;;4.97;1.67;;;19.70;99.90;;;;;;5080101;28;20112;-56
2023/08/04 09:45:14;;;;;;;5.80;1.70;;;19.60;99.90;;;;;;5079184;28;20056;-56
2023/08/04 09:47:44;;;;;;;4.65;1.40;;;19.50;99.90;;;;;;5080782;28;20037;-57
2023/08/04 09:50:10;;;;;;;3.47;1.38;;;19.50;99.90;;;;;;5081077;28;20053;-57
2023/08/04 09:52:36;;;;;;;6.50;1.60;;;19.50;99.90;;;;;;5082297;28;20519;-56
2023/08/04 09:55:01;;;;;;;3.70;1.70;;;19.50;99.90;;;;;;5068305;28;20048;-57
2023/08/04 09:57:28;;;;;;;7.03;1.90;;;19.60;99.90;;;;;;5061184;28;20041;-57
2023/08/04 09:59:53;;;;;;;5.65;1.77;;;19.70;99.90;;;;;;5060471;28;20102;-57
2023/08/04 10:02:19;;;;;;;8.80;1.70;;;19.80;99.90;;;;;;5072674;28;20501;-57
2023/08/04 10:04:49;;;;;;;7.03;2.08;;;19.80;99.90;;;;;;5076553;28;20070;-57
2023/08/04 10:07:18;;;;;;;4.43;1.77;;;19.80;99.90;;;;;;5079565;28;20079;-58
2023/08/04 10:09:45;;;;;;;5.60;2.25;;;19.90;99.90;;;;;;5081522;28;20052;-57
2023/08/04 10:12:12;;;;;;;4.38;1.48;;;20.00;99.90;;;;;;5076328;28;20504;-59
2023/08/04 10:14:38;;;;;;;7.75;1.92;;;20.10;99.90;;;;;;5080515;28;20065;-58
2023/08/04 10:17:05;;;;;;;6.93;1.80;;;20.10;99.90;;;;;;5080954;28;20060;-58
2023/08/04 10:19:32;;;;;;;6.10;1.70;;;20.10;99.90;;;;;;5081767;28;20043;-58
2023/08/04 10:22:08;;;;;;;7.32;1.80;;;20.20;99.90;;;;;;5072233;28;20040;-58
2023/08/04 10:24:36;;;;;;;6.57;1.63;;;20.20;99.90;;;;;;5080154;28;20028;-57
2023/08/04 10:27:21;;;;;;;5.03;1.77;;;20.20;99.90;;;;;;5078338;28;20083;-58
2023/08/04 10:30:03;;;;;;;10.15;2.00;;;20.30;99.90;;;;;;5078894;28;20574;-58
2023/08/04 10:32:36;;;;;;;6.57;1.52;;;20.40;99.90;;;;;;5075463;28;20060;-57
2023/08/04 10:35:05;;;;;;;4.70;1.80;;;20.50;99.90;;;;;;5071296;28;20037;-58
2023/08/04 10:37:44;;;;;;;4.95;1.92;;;20.50;99.90;;;;;;5073726;28;20051;-58
2023/08/04 10:40:11;;;;;;;4.93;1.70;;;20.50;99.90;;;;;;5079908;28;20047;-58
2023/08/04 10:43:02;;;;;;;10.35;1.90;;;20.40;99.90;;;;;;5076419;28;20040;-58
2023/08/04 10:45:52;;;;;;;5.05;1.67;;;20.30;99.90;;;;;;5079068;28;20082;-58
2023/08/04 10:48:21;;;;;;;4.57;2.00;;;20.30;99.90;;;;;;5062368;28;20090;-57
2023/08/04 10:50:50;;;;;;;8.63;2.08;;;20.30;99.90;;;;;;5075331;28;20037;-57
2023/08/04 10:53:16;;;;;;;6.93;2.20;;;20.30;99.90;;;;;;5074060;28;20045;-56
2023/08/04 10:55:58;;;;;;;5.88;1.98;;;20.40;99.90;;;;;;5070605;28;20433;-57
2023/08/04 10:58:25;;;;;;;5.20;2.13;;;20.50;99.90;;;;;;5082052;28;20075;-57
2023/08/04 11:00:52;;;;;;;6.35;2.28;;;20.40;99.90;;;;;;5080296;28;20044;-56
2023/08/04 11:03:36;;;;;;;5.93;1.70;;;20.40;99.90;;;;;;5078686;28;20049;-57
2023/08/04 11:06:03;;;;;;;7.70;2.05;;;20.30;99.90;;;;;;5080003;28;20036;-57
2023/08/04 11:08:30;;;;;;;6.18;1.50;;;20.20;99.90;;;;;;5067233;28;20083;-57
2023/08/04 11:10:57;;;;;;;7.60;1.60;;;20.30;99.90;;;;;;5079245;28;20130;-57
2023/08/04 11:13:24;;;;;;;6.07;1.73;;;20.20;99.90;;;;;;5078723;28;20469;-56
2023/08/04 11:15:53;;;;;;;6.18;1.80;;;20.30;99.90;;;;;;5079333;28;20072;-56
2023/08/04 11:18:29;;;;;;;6.60;1.80;;;20.20;99.90;;;;;;5079585;28;20071;-57
2023/08/04 11:21:00;;;;;;;5.70;1.77;;;20.30;99.90;;;;;;5069558;28;20068;-57
2023/08/04 11:23:28;;;;;;;6.93;1.63;;;20.30;99.90;;;;;;5063939;28;20094;-57
2023/08/04 11:25:55;;;;;;;4.88;1.60;;;20.30;99.90;;;;;;5076144;28;20040;-57
2023/08/04 11:28:21;;;;;;;7.88;1.90;;;20.40;99.90;;;;;;5080051;28;20094;-57
2023/08/04 11:30:47;;;;;;;4.93;1.85;;;20.30;99.90;;;;;;5078204;28;20048;-56
2023/08/04 11:33:14;;;;;;;3.97;1.80;;;20.30;99.90;;;;;;5058074;28;20060;-57
2023/08/04 11:35:40;;;;;;;6.07;1.92;;;20.30;99.90;;;;;;5078359;28;20037;-57
2023/08/04 11:38:05;;;;;;;7.75;2.20;;;20.30;99.90;;;;;;5070307;28;20047;-56
2023/08/04 11:40:31;;;;;;;6.35;1.77;;;20.30;99.90;;;;;;5059211;28;20059;-57
2023/08/04 11:42:59;;;;;;;4.50;1.65;;;20.40;99.90;;;;;;5072410;28;20051;-57
2023/08/04 11:45:31;;;;;;;4.00;1.60;;;20.40;99.90;;;;;;5078139;28;20560;-57
2023/08/04 11:47:58;;;;;;;6.93;1.58;;;20.50;99.90;;;;;;5074053;28;20033;-57
2023/08/04 11:50:26;;;;;;;5.68;1.80;;;20.50;99.90;;;;;;5069601;28;20072;-57
2023/08/04 11:52:53;;;;;;;6.35;1.60;;;20.50;99.90;;;;;;5074637;28;20083;-57
2023/08/04 11:55:19;;;;;;;4.55;1.45;;;20.50;99.90;;;;;;5078985;28;20048;-57
2023/08/04 11:57:52;;;;;;;4.18;1.80;;;20.50;99.90;;;;;;5080534;28;20037;-57
2023/08/04 12:00:38;;;;;;;3.83;1.70;;;20.60;99.90;;;;;;5069703;28;20048;-56
2023/08/04 12:03:04;;;;;;;5.25;1.70;;;20.70;99.90;;;;;;5059405;28;20047;-57
2023/08/04 12:05:32;;;;;;;6.00;1.90;;;20.70;99.90;;;;;;5075043;28;20041;-57
2023/08/04 12:08:11;;;;;;;4.80;1.88;;;20.70;99.90;;;;;;5069010;28;20438;-57
2023/08/04 12:10:37;;;;;;;4.40;1.80;;;20.70;99.90;;;;;;5078758;28;20049;-57
2023/08/04 12:13:03;;;;;;;5.40;2.10;;;20.70;99.90;;;;;;5063895;28;20034;-57
2023/08/04 12:15:28;;;;;;;7.85;1.63;;;20.80;99.90;;;;;;5066500;28;20329;-56
2023/08/04 12:17:54;;;;;;;5.55;1.80;;;20.80;99.90;;;;;;5071978;28;20051;-55
2023/08/04 12:20:20;;;;;;;5.82;2.00;;;20.80;99.90;;;;;;5078240;28;20040;-57
2023/08/04 12:22:46;;;;;;;6.60;1.80;;;20.90;99.90;;;;;;5084310;28;20052;-56
2023/08/04 12:25:12;;;;;;;5.25;1.73;;;20.90;99.90;;;;;;5080201;28;20071;-56
2023/08/04 12:27:40;;;;;;;6.88;1.95;;;20.90;99.90;;;;;;5082933;28;20028;-56
2023/08/04 12:30:06;;;;;;;6.95;2.00;;;21.00;99.90;;;;;;5061654;28;20086;-56
2023/08/04 12:32:32;;;;;;;5.63;2.30;;;21.20;99.90;;;;;;5083655;28;20052;-56
2023/08/04 12:34:58;;;;;;;7.47;1.80;;;21.20;99.90;;;;;;5069278;28;20037;-55
2023/08/04 12:37:25;;;;;;;4.55;1.98;;;21.20;99.90;;;;;;5078477;28;20032;-55
2023/08/04 12:39:51;;;;;;;8.20;2.08;;;21.10;99.90;;;;;;5082502;28;20094;-56
2023/08/04 12:42:17;;;;;;;7.20;2.15;;;21.00;99.90;;;;;;5074899;28;20040;-56
2023/08/04 12:44:42;;;;;;;7.95;2.70;;;20.80;99.90;;;;;;5077759;28;20044;-56